Pula, Croatia

11:33 PM CEST on September 23, 2014 (GMT +0200)
Astronomical observatory Pula | Change Station
CLOSE
Current Station
Personal Weather Station
Location: Pula - Istra, CROATIA
Elevation: 92 ft
Nearby Weather Stations

Elev 92 ft 44.87 °N, 13.85 °E | Updated 4 minutes ago

Clear
Clear
56.7 °F
Feels Like 56.7 °F
N
0.7
Wind Variable Wind from SE
Gusts 2.2 mph

Today
High -- | Low -- °F
--% Chance of Precip.
Yesterday
High -- | Low -- °F
Precip. -- in
6:52 AM 7:00 PM
Waning Crescent, 0% visible
Pressure 30.09 in
Visibility -9999.0 miles
Clouds
Dew Point 54 °F
Humidity 90%
Rainfall 2.95 in
Snow Depth Not available.
UV Not available.
Pollen Not available.
Air Quality Not available.
Flu Activity Not available.
METAR LDPL 232130Z 02005KT CAVOK 14/10 Q1019

More Conditions Fewer Conditions

Pressure 30.09 in
Visibility -9999.0 miles
Clouds
Dew Point 54 °F
Humidity 90%
Rainfall 2.95 in
Snow Depth Not available.
UV Not available.
Pollen Not available.
Air Quality Not available.
Flu Activity Not available.
METAR LDPL 232130Z 02005KT CAVOK 14/10 Q1019

More Conditions Fewer Conditions

10-Day Weather Forecast

Almanac

Astronomy

Sep. 23, 2014 Rise Set
Actual Time 6:52 AM CEST 7:00 PM CEST
Civil Twilight 6:23 AM CEST 7:29 PM CEST
Nautical Twilight 5:48 AM CEST 8:03 PM CEST
Astronomical Twilight 5:13 AM CEST 8:38 PM CEST
Moon 5:59 AM CEST 6:30 PM CEST
Length of Visible Light 13h 06m
Length of Day
12h 08m
Tomorrow will be 3m 6s shorter.
Waning Crescent, 0% of the Moon is Illuminated
Today
Waning Crescent
Sep 24
New
Oct 1
First Quarter
Oct 8
Full
Oct 15
Last Quarter

Today's Extremes

Country Highs Country Lows

Community

WunderPhotos

Upload Photos

1,755,794 photos uploaded!

WunderBlogs® & News

By Dr. Jeff Masters
Director of Meteorology, Weather Underground
By Kari Strenfel
Meteorologist, Weather Underground
By Christopher C. Burt
Weather Historian, Weather Underground
September 23, 2014
September 23, 2014
September 23, 2014

Nearby

Snow Depth

Not available.

Earthquake Activity

City Distance Mag. Time & Date
No recent earthquake activity has been reported nearby.
Minimum magnitude displayed is 2.5.

Coastal Water Temperatures

Place Temperature
No Stations Reporting

Nearby Weather Stations